createdAt,value
2023-01-01T00:00:52.147Z,53562.72
2023-01-01T00:03:20.907Z,53546.81
2023-01-01T00:05:49.730Z,53562.72
2023-01-01T00:08:18.272Z,53544.81
2023-01-01T00:10:47.178Z,53566.69
2023-01-01T00:13:16.064Z,53568.69
2023-01-01T00:15:46.073Z,53566.69
2023-01-01T00:18:14.866Z,53524.94
2023-01-01T00:20:43.479Z,53556.75
2023-01-01T00:23:12.936Z,53511.03
2023-01-01T00:25:41.878Z,53538.88
2023-01-01T00:28:10.743Z,53518.97
2023-01-01T00:30:42.040Z,53534.88
2023-01-01T00:33:12.062Z,53568.69
2023-01-01T00:35:40.757Z,53554.78
2023-01-01T00:38:09.423Z,53530.91
2023-01-01T00:40:38.570Z,53550.78
2023-01-01T00:43:07.374Z,53554.78
2023-01-01T00:45:36.063Z,53558.75
2023-01-01T00:48:04.932Z,53538.88
2023-01-01T00:50:34.988Z,53566.69
2023-01-01T00:53:03.589Z,53558.75
2023-01-01T00:55:32.084Z,53554.78
2023-01-01T00:58:00.668Z,53542.84
2023-01-01T01:00:29.302Z,53570.69
2023-01-01T01:02:57.861Z,53532.91
2023-01-01T01:05:26.395Z,53550.78
2023-01-01T01:07:56.611Z,53564.72
2023-01-01T01:10:26.348Z,53526.94
2023-01-01T01:12:55.206Z,53538.88
2023-01-01T01:15:23.844Z,53564.72
2023-01-01T01:17:52.381Z,53550.78
2023-01-01T01:20:23.224Z,53542.84
2023-01-01T01:22:51.998Z,53538.88
2023-01-01T01:25:22.609Z,53564.72
2023-01-01T01:27:51.654Z,53550.78
2023-01-01T01:30:20.247Z,53546.81
2023-01-01T01:32:48.706Z,53554.78
2023-01-01T01:35:17.282Z,53566.69
2023-01-01T01:37:46.248Z,53546.81
2023-01-01T01:40:17.708Z,53530.91
2023-01-01T01:42:52.123Z,53564.72
2023-01-01T01:45:21.441Z,53558.75
2023-01-01T01:47:52.369Z,53578.63
2023-01-01T01:50:27.391Z,53564.72
2023-01-01T01:53:05.017Z,53574.66
2023-01-01T01:55:36.883Z,53566.69
2023-01-01T01:58:08.428Z,53570.69
2023-01-01T02:00:37.783Z,53570.69
2023-01-01T02:03:09.891Z,53530.91
2023-01-01T02:05:40.515Z,53582.59
2023-01-01T02:08:10.354Z,53558.75
2023-01-01T02:10:39.610Z,53552.78
2023-01-01T02:13:11.035Z,53538.88
2023-01-01T02:15:47.999Z,53550.78
2023-01-01T02:18:21.592Z,53538.88
2023-01-01T02:20:53.925Z,53570.69
2023-01-01T02:23:35.942Z,53536.88
2023-01-01T02:26:24.113Z,53562.72
2023-01-01T02:29:00.828Z,53566.69
2023-01-01T02:31:33.892Z,53542.84
2023-01-01T02:34:06.825Z,53578.63
2023-01-01T02:36:41.383Z,53554.78
2023-01-01T02:39:18.091Z,53582.59
2023-01-01T02:41:50.460Z,53562.72
2023-01-01T02:44:24.347Z,53550.78
2023-01-01T02:46:53.375Z,53570.69
2023-01-01T02:49:22.313Z,53544.81
2023-01-01T02:52:03.153Z,53530.91
2023-01-01T02:54:36.569Z,53570.69
2023-01-01T02:57:11.650Z,53538.88
2023-01-01T03:00:14.582Z,53558.75
2023-01-01T03:02:54.503Z,53554.78
2023-01-01T03:05:32.550Z,53566.69
2023-01-01T03:08:08.831Z,53542.84
2023-01-01T03:10:44.553Z,53520.97
2023-01-01T03:13:21.743Z,53600.50
2023-01-01T03:16:01.075Z,53546.81
2023-01-01T03:18:35.563Z,53564.72
2023-01-01T03:21:07.125Z,53570.69
2023-01-01T03:23:38.716Z,53534.88
2023-01-01T03:26:11.078Z,53554.78
2023-01-01T03:28:45.227Z,53558.75
2023-01-01T03:31:21.242Z,53560.72
2023-01-01T03:33:53.421Z,53554.78
2023-01-01T03:36:25.844Z,53564.72
2023-01-01T03:39:00.102Z,53570.69
2023-01-01T03:41:37.217Z,53532.91
2023-01-01T03:44:10.406Z,53586.56
2023-01-01T03:46:40.627Z,53546.81
2023-01-01T03:49:12.962Z,53544.81
2023-01-01T03:52:01.903Z,53550.78
2023-01-01T03:54:42.003Z,53554.78
2023-01-01T03:57:19.456Z,53538.88
2023-01-01T03:59:54.760Z,53540.84
2023-01-01T04:02:30.165Z,53560.72
2023-01-01T04:05:03.015Z,53570.69
2023-01-01T04:07:32.954Z,53560.72
2023-01-01T04:10:17.349Z,53590.56
2023-01-01T04:12:48.573Z,53564.72
2023-01-01T04:15:17.920Z,53544.81
2023-01-01T04:17:47.964Z,53578.63
2023-01-01T04:20:17.247Z,53566.69
2023-01-01T04:22:46.563Z,53580.63
2023-01-01T04:25:17.707Z,53568.69
2023-01-01T04:27:46.430Z,53574.66
2023-01-01T04:30:16.689Z,53590.56
2023-01-01T04:32:45.657Z,53558.75
2023-01-01T04:35:16.550Z,53562.72
2023-01-01T04:37:46.351Z,53530.91
2023-01-01T04:40:15.457Z,53576.63
2023-01-01T04:42:44.620Z,53566.69
2023-01-01T04:45:15.516Z,53542.84
2023-01-01T04:47:44.711Z,53588.56
2023-01-01T04:50:13.092Z,53548.81
2023-01-01T04:52:43.191Z,53566.69
2023-01-01T04:55:11.745Z,53580.63
2023-01-01T04:57:40.254Z,53594.53
2023-01-01T05:00:10.097Z,53568.69
2023-01-01T05:02:38.753Z,53574.66
2023-01-01T05:05:07.824Z,53580.63
2023-01-01T05:07:37.100Z,53600.50
2023-01-01T05:10:08.282Z,53610.44
2023-01-01T05:12:38.979Z,53582.59
2023-01-01T05:15:08.705Z,53582.59
2023-01-01T05:17:37.117Z,53592.53
2023-01-01T05:20:06.670Z,53570.69
2023-01-01T05:22:35.224Z,53592.53
2023-01-01T05:25:06.848Z,53592.53
2023-01-01T05:27:35.318Z,53598.50
2023-01-01T05:30:03.895Z,53590.56
2023-01-01T05:32:32.538Z,53590.56
2023-01-01T05:35:01.321Z,53594.53
2023-01-01T05:37:29.923Z,53576.63
2023-01-01T05:39:58.553Z,53604.47
2023-01-01T05:42:28.462Z,53598.50
2023-01-01T05:44:56.932Z,53600.50
2023-01-01T05:47:29.649Z,53624.34
2023-01-01T05:49:58.809Z,53596.53
2023-01-01T05:52:27.416Z,53618.38
2023-01-01T05:54:55.924Z,53606.47
2023-01-01T05:57:24.669Z,53552.78
2023-01-01T05:59:54.545Z,53616.41
2023-01-01T06:02:23.088Z,53590.56
2023-01-01T06:04:51.663Z,53586.56
2023-01-01T06:07:20.492Z,53570.69
2023-01-01T06:09:49.004Z,53606.47
2023-01-01T06:12:17.498Z,53582.59
2023-01-01T06:14:48.836Z,53552.78
2023-01-01T06:17:18.640Z,53608.44
2023-01-01T06:19:47.309Z,53562.72
2023-01-01T06:22:16.009Z,53564.72
2023-01-01T06:24:44.531Z,53592.53
2023-01-01T06:27:13.102Z,53594.53
2023-01-01T06:29:41.569Z,53594.53
2023-01-01T06:32:10.126Z,53598.50
2023-01-01T06:34:40.131Z,53602.47
2023-01-01T06:37:08.523Z,53596.53
2023-01-01T06:39:36.994Z,53606.47
2023-01-01T06:42:05.747Z,53604.47
2023-01-01T06:44:34.290Z,53624.34
2023-01-01T06:47:03.050Z,53610.44
2023-01-01T06:49:31.782Z,53582.59
2023-01-01T06:52:01.587Z,53614.41
2023-01-01T06:54:30.190Z,53570.69
2023-01-01T06:56:58.681Z,53614.41
2023-01-01T06:59:27.164Z,53604.47
2023-01-01T07:01:55.701Z,53624.34
2023-01-01T07:04:24.357Z,53612.44
2023-01-01T07:06:52.975Z,53618.38
2023-01-01T07:09:23.226Z,53626.34
2023-01-01T07:11:52.097Z,53646.22
2023-01-01T07:14:20.938Z,53628.31
2023-01-01T07:16:49.682Z,53618.38
2023-01-01T07:19:18.194Z,53626.34
2023-01-01T07:21:49.162Z,53642.25
2023-01-01T07:24:18.041Z,53664.13
2023-01-01T07:26:49.288Z,53650.19
2023-01-01T07:29:18.104Z,53674.06
2023-01-01T07:31:46.872Z,53686.00
2023-01-01T07:34:19.340Z,53650.19
2023-01-01T07:36:48.350Z,53686.00
2023-01-01T07:39:16.929Z,53705.88
2023-01-01T07:41:45.953Z,53689.97
2023-01-01T07:44:16.511Z,53711.84
2023-01-01T07:46:45.358Z,53693.94
2023-01-01T07:49:13.873Z,53757.56
2023-01-01T07:51:42.415Z,53733.69
2023-01-01T07:54:11.032Z,53741.66
2023-01-01T07:56:39.554Z,53773.47
2023-01-01T07:59:08.074Z,53749.59
2023-01-01T08:01:39.342Z,53761.53
2023-01-01T08:04:08.230Z,53745.63
2023-01-01T08:06:36.689Z,53733.69
2023-01-01T08:09:05.259Z,53771.47
2023-01-01T08:11:34.979Z,53779.44
2023-01-01T08:14:03.626Z,53789.38
2023-01-01T08:16:32.063Z,53737.69
2023-01-01T08:19:01.995Z,53781.41
2023-01-01T08:21:30.762Z,53747.63
2023-01-01T08:23:59.561Z,53757.56
2023-01-01T08:26:30.995Z,53747.63
2023-01-01T08:29:00.289Z,53785.41
2023-01-01T08:31:28.933Z,53735.69
2023-01-01T08:33:57.810Z,53753.59
2023-01-01T08:36:27.757Z,53771.47
2023-01-01T08:38:56.320Z,53769.50
2023-01-01T08:41:24.819Z,53757.56
2023-01-01T08:43:53.481Z,53777.44
2023-01-01T08:46:22.998Z,53761.53
2023-01-01T08:48:51.610Z,53765.50
2023-01-01T08:51:20.405Z,53755.56
2023-01-01T08:53:51.503Z,53771.47
2023-01-01T08:56:20.822Z,53759.56
2023-01-01T08:58:49.921Z,53779.44
2023-01-01T09:01:22.026Z,53769.50
2023-01-01T09:03:51.244Z,53777.44
2023-01-01T09:06:19.996Z,53791.34
2023-01-01T09:08:48.553Z,53761.53
2023-01-01T09:11:24.246Z,53799.31
2023-01-01T09:13:53.615Z,53781.41
2023-01-01T09:16:23.764Z,53761.53
2023-01-01T09:18:53.002Z,53743.66
2023-01-01T09:21:21.743Z,53747.63
2023-01-01T09:23:50.386Z,53769.50
2023-01-01T09:26:20.493Z,53741.66
2023-01-01T09:28:49.042Z,53753.59
2023-01-01T09:31:17.658Z,53753.59
2023-01-01T09:33:46.118Z,53793.34
2023-01-01T09:36:16.264Z,53783.41
2023-01-01T09:38:44.927Z,53771.47
2023-01-01T09:41:26.453Z,53769.50
2023-01-01T09:44:03.750Z,53785.41
2023-01-01T09:46:36.749Z,53785.41
2023-01-01T09:49:12.783Z,53781.41
2023-01-01T09:51:51.107Z,53779.44
2023-01-01T09:54:29.763Z,53765.50
2023-01-01T09:57:02.612Z,53791.34
2023-01-01T09:59:31.612Z,53759.56
2023-01-01T10:02:12.118Z,53787.38
2023-01-01T10:04:57.030Z,53795.34
2023-01-01T10:07:34.756Z,53767.50
2023-01-01T10:10:09.661Z,53777.44
2023-01-01T10:12:50.092Z,53735.69
2023-01-01T10:15:22.768Z,53775.47
2023-01-01T10:17:55.257Z,53775.47
2023-01-01T10:20:28.191Z,53787.38
2023-01-01T10:23:01.248Z,53765.50
2023-01-01T10:25:33.518Z,53789.38
2023-01-01T10:28:06.521Z,53771.47
2023-01-01T10:30:35.105Z,53785.41
2023-01-01T10:33:10.007Z,53761.53
2023-01-01T10:35:42.873Z,53747.63
2023-01-01T10:38:18.334Z,53775.47
2023-01-01T10:40:47.023Z,53767.50
2023-01-01T10:43:17.478Z,53777.44
2023-01-01T10:45:49.751Z,53761.53
2023-01-01T10:48:21.636Z,53773.47
2023-01-01T10:50:53.084Z,53725.75
2023-01-01T10:53:26.203Z,53761.53
2023-01-01T10:56:01.794Z,53757.56
2023-01-01T10:58:41.051Z,53741.66
2023-01-01T11:01:12.425Z,53765.50
2023-01-01T11:03:55.738Z,53749.59
2023-01-01T11:06:26.841Z,53733.69
2023-01-01T11:08:57.330Z,53773.47
2023-01-01T11:11:32.956Z,53761.53
2023-01-01T11:14:06.461Z,53757.56
2023-01-01T11:16:35.132Z,53725.75
2023-01-01T11:19:07.334Z,53733.69
2023-01-01T11:21:37.041Z,53741.66
2023-01-01T11:24:20.739Z,53751.59
2023-01-01T11:26:54.654Z,53749.59
2023-01-01T11:29:30.698Z,53753.59
2023-01-01T11:32:01.779Z,53725.75
2023-01-01T11:34:33.865Z,53733.69
2023-01-01T11:37:20.099Z,53723.75
2023-01-01T11:39:51.735Z,53733.69
2023-01-01T11:42:23.460Z,53725.75
2023-01-01T11:44:58.413Z,53711.84
2023-01-01T11:47:32.134Z,53725.75
2023-01-01T11:50:05.965Z,53717.78
2023-01-01T11:52:40.759Z,53741.66
2023-01-01T11:55:19.561Z,53705.88
2023-01-01T11:57:58.044Z,53729.72
2023-01-01T12:00:32.070Z,53747.63
2023-01-01T12:03:05.638Z,53686.00
2023-01-01T12:05:45.858Z,53751.59
2023-01-01T12:08:18.685Z,53745.63
2023-01-01T12:10:52.971Z,53749.59
2023-01-01T12:13:26.436Z,53717.78
2023-01-01T12:16:04.125Z,53733.69
2023-01-01T12:18:39.399Z,53727.75
2023-01-01T12:21:14.346Z,53709.84
2023-01-01T12:23:43.349Z,53753.59
2023-01-01T12:26:21.117Z,53743.66
2023-01-01T12:29:27.172Z,53741.66
2023-01-01T12:32:04.677Z,53717.78
2023-01-01T12:34:39.515Z,53711.84
2023-01-01T12:37:17.007Z,53745.63
2023-01-01T12:40:32.544Z,53731.72
2023-01-01T12:43:04.057Z,53745.63
2023-01-01T12:46:08.097Z,53737.69
2023-01-01T12:49:03.506Z,53747.63
2023-01-01T12:51:43.100Z,53719.78
2023-01-01T12:54:41.337Z,53765.50
2023-01-01T12:57:16.422Z,53737.69
2023-01-01T12:59:49.767Z,53717.78
2023-01-01T13:02:24.685Z,53737.69
2023-01-01T13:04:58.827Z,53747.63
2023-01-01T13:07:32.228Z,53745.63
2023-01-01T13:10:08.885Z,53743.66
2023-01-01T13:12:39.244Z,53757.56
2023-01-01T13:15:36.366Z,53717.78
2023-01-01T13:18:07.312Z,53713.81
2023-01-01T13:20:42.536Z,53739.66
2023-01-01T13:23:43.385Z,53737.69
2023-01-01T13:26:42.794Z,53743.66
2023-01-01T13:29:51.429Z,53733.69
2023-01-01T13:32:20.513Z,53745.63
2023-01-01T13:35:03.266Z,53761.53
2023-01-01T13:37:46.711Z,53753.59
2023-01-01T13:40:54.158Z,53757.56
2023-01-01T13:43:29.333Z,53757.56
2023-01-01T13:46:15.417Z,53759.56
2023-01-01T13:49:06.210Z,53745.63
2023-01-01T13:52:08.294Z,53729.72
2023-01-01T13:55:15.007Z,53753.59
2023-01-01T13:58:11.754Z,53749.59
2023-01-01T14:00:56.108Z,53797.31
2023-01-01T14:03:27.936Z,53777.44
2023-01-01T14:05:59.489Z,53781.41
2023-01-01T14:08:33.074Z,53751.59
2023-01-01T14:11:05.511Z,53751.59
2023-01-01T14:13:41.835Z,53791.34
2023-01-01T14:16:13.996Z,53759.56
2023-01-01T14:18:45.723Z,53789.38
2023-01-01T14:21:16.543Z,53753.59
2023-01-01T14:23:47.046Z,53749.59
2023-01-01T14:26:21.719Z,53779.44
2023-01-01T14:28:54.605Z,53767.50
2023-01-01T14:31:27.084Z,53761.53
2023-01-01T14:33:56.443Z,53773.47
2023-01-01T14:36:27.448Z,53785.41
2023-01-01T14:38:57.647Z,53769.50
2023-01-01T14:41:31.001Z,53787.38
2023-01-01T14:44:06.234Z,53787.38
2023-01-01T14:46:35.487Z,53829.13
2023-01-01T14:49:10.524Z,53799.31
2023-01-01T14:51:44.860Z,53783.41
2023-01-01T14:54:19.544Z,53789.38
2023-01-01T14:56:51.402Z,53793.34
2023-01-01T14:59:25.241Z,53817.22
2023-01-01T15:02:01.876Z,53789.38
2023-01-01T15:04:31.076Z,53839.06
2023-01-01T15:07:03.728Z,53837.09
2023-01-01T15:09:33.806Z,53843.06
2023-01-01T15:12:05.640Z,53835.09
2023-01-01T15:14:38.222Z,53819.19
2023-01-01T15:17:08.937Z,53821.19
2023-01-01T15:19:41.227Z,53793.34
2023-01-01T15:22:12.258Z,53833.13
2023-01-01T15:24:41.326Z,53845.03
2023-01-01T15:27:24.301Z,53825.16
2023-01-01T15:29:53.454Z,53821.19
2023-01-01T15:32:27.439Z,53797.31
2023-01-01T15:34:57.779Z,53839.06
2023-01-01T15:37:33.816Z,53815.22
2023-01-01T15:40:05.748Z,53821.19
2023-01-01T15:42:40.476Z,53853.00
2023-01-01T15:45:24.376Z,53825.16
2023-01-01T15:47:54.595Z,53872.88
2023-01-01T15:50:26.749Z,53854.97
2023-01-01T15:52:59.829Z,53837.09
2023-01-01T15:55:33.262Z,53864.94
2023-01-01T15:58:04.718Z,53845.03
2023-01-01T16:00:37.768Z,53868.91
2023-01-01T16:03:19.490Z,53868.91
2023-01-01T16:05:50.404Z,53876.84
2023-01-01T16:08:21.536Z,53876.84
2023-01-01T16:10:51.018Z,53880.84
2023-01-01T16:13:23.322Z,53894.75
2023-01-01T16:15:53.273Z,53910.66
2023-01-01T16:18:27.651Z,53910.66
2023-01-01T16:20:56.782Z,53926.56
2023-01-01T16:23:25.442Z,53954.41
2023-01-01T16:25:54.037Z,53944.47
2023-01-01T16:28:23.861Z,54004.09
2023-01-01T16:30:52.546Z,54024.00
2023-01-01T16:33:22.814Z,54045.88
2023-01-01T16:35:52.611Z,54145.28
2023-01-01T16:38:21.014Z,54153.25
2023-01-01T16:40:52.265Z,54258.63
2023-01-01T16:43:20.742Z,54366.00
2023-01-01T16:45:50.725Z,54485.31
2023-01-01T16:48:19.378Z,54618.56
2023-01-01T16:50:52.441Z,54839.31
2023-01-01T16:53:20.992Z,55101.84
2023-01-01T16:55:52.826Z,55384.31
2023-01-01T16:58:48.660Z,55696.63
2023-01-01T17:01:12.196Z,56046.75
2023-01-01T17:03:41.574Z,56538.22
2023-01-01T17:06:11.665Z,56952.13
2023-01-01T17:08:40.920Z,57489.50
2023-01-01T17:11:14.263Z,58216.06
2023-01-01T17:13:46.612Z,59169.81
2023-01-01T17:16:26.006Z,60141.75
2023-01-01T17:21:46.150Z,63150.94
2023-01-01T17:24:14.972Z,64522.91
2023-01-01T17:26:43.877Z,66633.75
2023-01-01T17:29:12.695Z,69165.31
2023-01-01T17:31:44.045Z,71698.75
2023-01-01T17:34:14.655Z,74258.06
2023-01-01T17:36:44.105Z,75282.31
2023-01-01T17:39:13.341Z,77331.78
2023-01-01T17:41:42.480Z,78356.94
2023-01-01T17:44:11.786Z,80151.75
2023-01-01T17:46:42.718Z,81434.31
2023-01-01T17:49:12.674Z,83487.44
2023-01-01T17:51:41.484Z,84514.44
2023-01-01T17:54:13.950Z,86312.47
2023-01-01T17:56:42.838Z,87854.38
2023-01-01T17:59:11.688Z,88368.50
2023-01-01T18:01:40.333Z,89139.81
2023-01-01T18:04:10.597Z,89654.13
2023-01-01T18:06:43.660Z,90682.97
2023-01-01T18:09:14.881Z,91712.13
2023-01-01T18:11:45.926Z,92741.59
2023-01-01T18:14:18.369Z,92741.59
2023-01-01T18:16:49.993Z,93771.38
2023-01-01T18:19:19.552Z,94543.91
2023-01-01T18:21:49.993Z,94543.91
2023-01-01T18:24:19.060Z,95316.59
2023-01-01T18:26:47.821Z,96089.47
2023-01-01T18:29:17.856Z,96862.50
2023-01-01T18:31:46.554Z,97635.72
2023-01-01T18:34:15.050Z,98409.13
2023-01-01T18:36:45.750Z,99182.69
2023-01-01T18:39:21.475Z,99698.47
2023-01-01T18:42:34.454Z,100214.34
2023-01-01T18:45:09.879Z,100988.31
2023-01-01T18:47:39.585Z,101504.38
2023-01-01T18:50:17.579Z,102278.66
2023-01-01T18:52:47.566Z,102020.53
2023-01-01T18:55:19.230Z,102536.75
2023-01-01T19:00:39.713Z,104602.44
2023-01-01T19:03:15.439Z,104602.44
2023-01-01T19:05:45.075Z,105377.34
2023-01-01T19:08:18.760Z,105119.03
2023-01-01T19:10:50.852Z,104344.16
2023-01-01T19:13:22.583Z,104860.72
2023-01-01T19:15:54.151Z,105377.34
2023-01-01T19:18:24.779Z,105635.72
2023-01-01T19:21:02.449Z,105894.09
2023-01-01T19:23:32.388Z,106152.47
2023-01-01T19:26:05.378Z,106152.47
2023-01-01T19:28:39.336Z,106410.88
2023-01-01T19:31:09.805Z,106410.88
2023-01-01T19:33:38.366Z,106927.75
2023-01-01T19:36:07.660Z,107444.69
2023-01-01T19:38:36.325Z,107186.22
2023-01-01T19:41:06.577Z,107703.22
2023-01-01T19:43:35.827Z,107703.22
2023-01-01T19:46:05.629Z,107961.72
2023-01-01T19:48:35.033Z,107961.72
2023-01-01T19:51:08.658Z,108220.28
2023-01-01T19:53:37.269Z,108478.84
2023-01-01T19:56:07.802Z,108478.84
2023-01-01T19:58:36.583Z,108737.41
2023-01-01T20:01:05.294Z,108737.41
2023-01-01T20:03:53.491Z,108996.00
2023-01-01T20:06:22.659Z,109254.63
2023-01-01T20:08:51.613Z,109254.63
2023-01-01T20:11:21.956Z,109254.63
2023-01-01T20:13:50.917Z,109513.28
2023-01-01T20:16:19.644Z,109513.28
2023-01-01T20:18:54.979Z,109771.94
2023-01-01T20:21:41.678Z,110030.59
2023-01-01T20:24:11.314Z,110289.28
2023-01-01T20:26:41.295Z,110289.28
2023-01-01T20:29:22.252Z,110289.28
2023-01-01T20:31:53.070Z,110548.00
2023-01-01T20:34:22.193Z,110806.75
2023-01-01T20:37:08.386Z,110806.75
2023-01-01T20:39:39.814Z,110806.75
2023-01-01T20:42:09.960Z,110806.75
2023-01-01T20:44:38.541Z,111065.50
2023-01-01T20:47:06.955Z,111065.50
2023-01-01T20:49:35.489Z,111065.50
2023-01-01T20:52:04.377Z,111324.28
2023-01-01T20:54:33.285Z,111324.28
2023-01-01T20:57:02.062Z,111324.28
2023-01-01T20:59:37.756Z,111583.06
2023-01-01T21:02:08.407Z,111324.28
2023-01-01T21:04:39.180Z,111583.06
2023-01-01T21:07:10.490Z,111583.06
2023-01-01T21:09:39.395Z,111583.06
2023-01-01T21:12:10.267Z,111583.06
2023-01-01T21:14:40.920Z,111583.06
2023-01-01T21:17:21.481Z,111583.06
2023-01-01T21:19:51.207Z,111583.06
2023-01-01T21:22:19.761Z,111583.06
2023-01-01T21:24:53.544Z,111583.06
2023-01-01T21:27:27.372Z,111583.06
2023-01-01T21:30:00.072Z,111324.28
2023-01-01T21:32:38.398Z,111583.06
2023-01-01T21:35:17.680Z,111583.06
2023-01-01T21:37:50.166Z,111583.06
2023-01-01T21:40:46.283Z,111583.06
2023-01-01T21:43:39.725Z,111583.06
2023-01-01T21:46:24.976Z,111583.06
2023-01-01T21:48:56.895Z,111583.06
2023-01-01T21:51:27.725Z,111841.88
2023-01-01T21:54:04.591Z,111841.88
2023-01-01T21:56:36.459Z,111841.88
2023-01-01T21:59:28.806Z,111841.88
2023-01-01T22:02:09.621Z,112100.69
2023-01-01T22:04:41.477Z,112100.69
2023-01-01T22:10:16.546Z,112359.53
2023-01-01T22:12:46.282Z,112359.53
2023-01-01T22:15:30.961Z,112359.53
2023-01-01T22:18:23.074Z,112359.53
2023-01-01T22:20:52.263Z,112618.41
2023-01-01T22:23:39.808Z,112618.41
2023-01-01T22:26:23.475Z,112618.41
2023-01-01T22:28:56.859Z,112618.41
2023-01-01T22:31:29.722Z,112618.41
2023-01-01T22:34:03.586Z,112877.31
2023-01-01T22:36:35.393Z,112877.31
2023-01-01T22:39:10.833Z,112877.31
2023-01-01T22:41:39.765Z,112877.31
2023-01-01T22:44:08.352Z,112877.31
2023-01-01T22:46:38.948Z,112877.31
2023-01-01T22:49:18.386Z,113136.22
2023-01-01T22:51:48.152Z,113136.22
2023-01-01T22:54:16.645Z,113136.22
2023-01-01T22:56:45.253Z,113136.22
2023-01-01T22:59:13.855Z,112877.31
2023-01-01T23:01:42.597Z,112877.31
2023-01-01T23:04:13.038Z,112877.31
2023-01-01T23:06:41.687Z,112877.31
2023-01-01T23:09:11.483Z,113136.22
2023-01-01T23:11:40.362Z,112877.31
2023-01-01T23:14:26.954Z,112877.31
2023-01-01T23:16:55.412Z,112877.31
2023-01-01T23:19:25.400Z,112877.31
2023-01-01T23:21:55.172Z,112877.31
2023-01-01T23:24:25.601Z,113136.22
2023-01-01T23:26:54.729Z,112877.31
2023-01-01T23:29:24.562Z,113136.22
2023-01-01T23:31:53.349Z,113136.22
2023-01-01T23:34:22.049Z,113136.22
2023-01-01T23:36:54.323Z,113136.22
2023-01-01T23:39:23.060Z,113136.22
2023-01-01T23:41:51.735Z,113136.22
2023-01-01T23:44:20.222Z,113136.22
2023-01-01T23:46:49.027Z,113136.22
2023-01-01T23:49:18.700Z,113136.22
2023-01-01T23:51:47.822Z,113136.22
2023-01-01T23:54:18.683Z,113395.13
2023-01-01T23:56:47.591Z,113395.13
2023-01-01T23:59:19.193Z,113395.13
